Time;durP1;ratioP1;P1;durP2;ratioP2;P2;SDS_P1;SDS_P2;PMS_P1;PMS_P2;Temp;Humidity;BMP_temperature;BMP_pressure;BME280_temperature;BME280_humidity;BME280_pressure;Samples;Min_cycle;Max_cycle;Signal;HPM_P1;HPM_P2
2021/09/05 00:00:20;;;;;;;8.45;6.38;;;;;;;18.41;61.59;97373.59;4953985;29;21055;-80
2021/09/05 00:02:45;;;;;;;7.05;6.35;;;;;;;18.42;61.29;97375.13;4920817;29;20054;-80
2021/09/05 00:05:11;;;;;;;7.50;6.45;;;;;;;18.42;61.37;97369.84;4920825;29;20099;-80
2021/09/05 00:07:37;;;;;;;6.57;5.90;;;;;;;18.43;61.46;97371.44;4904980;29;20031;-80
2021/09/05 00:10:02;;;;;;;7.72;6.13;;;;;;;18.47;61.27;97378.47;4920546;29;20090;-80
2021/09/05 00:12:28;;;;;;;7.00;6.30;;;;;;;18.42;61.55;97367.22;4921114;29;20042;-80
2021/09/05 00:14:53;;;;;;;7.32;5.95;;;;;;;18.42;61.51;97365.38;4936303;29;20047;-80
2021/09/05 00:17:18;;;;;;;6.40;5.80;;;;;;;18.48;61.12;97368.72;4904619;29;20023;-80
2021/09/05 00:19:44;;;;;;;6.80;6.10;;;;;;;18.47;61.14;97367.94;4935982;29;20122;-80
2021/09/05 00:22:09;;;;;;;6.70;6.00;;;;;;;18.49;61.00;97371.06;4935667;29;20517;-80
2021/09/05 00:24:38;;;;;;;7.72;5.95;;;;;;;18.44;61.17;97360.59;4936198;29;20520;-80
2021/09/05 00:27:04;;;;;;;7.00;6.30;;;;;;;18.57;60.98;97360.91;4950669;28;20402;-80
2021/09/05 00:29:29;;;;;;;6.32;5.55;;;;;;;18.66;60.52;97361.78;4955924;28;20027;-80
2021/09/05 00:31:54;;;;;;;6.93;6.22;;;;;;;18.58;60.68;97360.63;4926595;29;20293;-80
2021/09/05 00:34:20;;;;;;;8.25;6.45;;;;;;;18.38;61.02;97367.03;4920513;29;20073;-80
2021/09/05 00:36:46;;;;;;;8.77;6.70;;;;;;;18.40;60.87;97366.72;4920208;29;20031;-80
2021/09/05 00:39:11;;;;;;;9.88;6.80;;;;;;;18.42;61.03;97365.38;4920347;29;20394;-80
2021/09/05 00:41:37;;;;;;;7.10;6.40;;;;;;;18.33;61.44;97359.19;4902204;29;20032;-80
2021/09/05 00:44:06;;;;;;;7.03;6.32;;;;;;;18.37;61.87;97362.03;4935609;29;20500;-80
2021/09/05 00:46:33;;;;;;;7.85;6.30;;;;;;;18.36;61.61;97358.63;4904718;29;20031;-80
2021/09/05 00:48:58;;;;;;;7.30;6.40;;;;;;;18.33;61.81;97362.63;4935955;29;20502;-80
2021/09/05 00:51:30;;;;;;;10.05;7.03;;;;;;;18.13;62.24;97368.25;4920156;29;20031;-80
2021/09/05 00:53:58;;;;;;;7.45;6.70;;;;;;;18.25;62.00;97363.31;4920488;29;20043;-80
2021/09/05 00:56:24;;;;;;;7.72;6.57;;;;;;;18.27;62.40;97368.28;4920590;29;20086;-80
2021/09/05 00:58:51;;;;;;;8.40;7.18;;;;;;;18.15;62.83;97366.09;4920490;29;20031;-80
2021/09/05 01:01:16;;;;;;;7.93;7.10;;;;;;;18.18;63.12;97362.09;4919706;29;20106;-81
2021/09/05 01:03:42;;;;;;;8.20;7.25;;;;;;;18.13;63.15;97370.88;4930005;29;20036;-81
2021/09/05 01:06:07;;;;;;;10.13;8.00;;;;;;;18.20;63.57;97362.59;4935310;29;20035;-81
2021/09/05 01:08:33;;;;;;;9.02;7.45;;;;;;;18.24;63.14;97359.09;4920185;29;20039;-80
2021/09/05 01:10:58;;;;;;;9.55;7.85;;;;;;;18.29;63.30;97360.88;4903556;29;20145;-81
2021/09/05 01:13:24;;;;;;;10.13;7.78;;;;;;;18.29;63.17;97366.91;4936289;29;20031;-81
2021/09/05 01:15:50;;;;;;;13.05;8.95;;;;;;;18.32;63.27;97365.56;4935969;29;20070;-81
2021/09/05 01:18:17;;;;;;;9.07;7.97;;;;;;;18.25;63.32;97365.13;4935603;29;20082;-80
2021/09/05 01:20:43;;;;;;;9.60;8.60;;;;;;;18.29;63.48;97368.78;4919972;29;20054;-80
2021/09/05 01:23:08;;;;;;;9.30;7.78;;;;;;;18.29;63.16;97366.13;4935331;29;20039;-80
2021/09/05 01:25:33;;;;;;;10.23;8.30;;;;;;;18.33;63.39;97373.19;4920331;29;20386;-80
2021/09/05 01:27:59;;;;;;;12.10;8.90;;;;;;;18.29;63.04;97377.44;4919539;29;20042;-80
2021/09/05 01:30:24;;;;;;;9.25;7.85;;;;;;;18.28;63.19;97370.63;4903681;29;20023;-80
2021/09/05 01:32:50;;;;;;;11.25;8.38;;;;;;;18.26;63.38;97378.03;4904103;29;20035;-80
2021/09/05 01:35:15;;;;;;;10.07;8.02;;;;;;;18.25;63.17;97375.69;4952186;28;20031;-80
2021/09/05 01:37:40;;;;;;;9.10;7.65;;;;;;;18.26;63.30;97383.28;4935498;29;20482;-80
2021/09/05 01:40:08;;;;;;;8.30;7.40;;;;;;;18.28;63.03;97383.00;4934516;29;20093;-79
2021/09/05 01:42:33;;;;;;;9.43;7.95;;;;;;;18.40;62.95;97383.31;4919837;29;20035;-80
2021/09/05 01:45:01;;;;;;;11.52;8.88;;;;;;;18.36;63.02;97392.91;4951918;29;20528;-80
2021/09/05 01:47:26;;;;;;;9.77;7.90;;;;;;;18.36;63.04;97387.63;4919537;29;20031;-80
2021/09/05 01:49:52;;;;;;;10.38;8.02;;;;;;;18.41;62.99;97394.69;4918491;29;20105;-80
2021/09/05 01:52:17;;;;;;;9.85;8.23;;;;;;;18.39;62.95;97397.59;4918609;29;20066;-80
2021/09/05 01:54:42;;;;;;;9.48;7.50;;;;;;;18.47;62.89;97393.50;4952003;29;20552;-80
2021/09/05 01:57:08;;;;;;;10.23;8.30;;;;;;;18.51;62.77;97403.19;4902654;29;20039;-80
2021/09/05 01:59:33;;;;;;;11.25;8.80;;;;;;;18.44;63.16;97402.78;4918673;29;20027;-80
2021/09/05 02:01:58;;;;;;;10.95;8.30;;;;;;;18.45;63.10;97399.06;4918895;29;20035;-80
2021/09/05 02:04:24;;;;;;;12.80;8.85;;;;;;;18.42;63.46;97401.50;4934704;29;20039;-80
2021/09/05 02:06:49;;;;;;;10.48;8.80;;;;;;;18.41;63.46;97400.72;4918571;29;20035;-80
2021/09/05 02:09:15;;;;;;;12.07;8.75;;;;;;;18.40;63.32;97401.00;4918642;29;20502;-80
2021/09/05 02:11:41;;;;;;;9.68;8.35;;;;;;;18.33;63.27;97394.28;4918601;29;20039;-80
2021/09/05 02:14:06;;;;;;;10.88;8.65;;;;;;;18.34;63.67;97392.41;4903395;29;20114;-80
2021/09/05 02:16:32;;;;;;;10.38;9.18;;;;;;;18.29;63.54;97401.19;4934535;29;20116;-80
2021/09/05 02:18:57;;;;;;;11.50;8.70;;;;;;;18.31;63.45;97396.38;4952199;29;20038;-80
2021/09/05 02:21:23;;;;;;;9.93;8.63;;;;;;;18.32;63.37;97391.94;4918458;29;20106;-80
2021/09/05 02:23:48;;;;;;;10.77;9.45;;;;;;;18.33;63.54;97396.91;4934492;29;20487;-80
2021/09/05 02:26:13;;;;;;;12.48;9.50;;;;;;;18.29;63.66;97398.53;4910698;28;20062;-80
2021/09/05 02:28:39;;;;;;;11.80;9.38;;;;;;;18.26;63.84;97393.06;4953511;28;20367;-80
2021/09/05 02:31:04;;;;;;;11.90;9.35;;;;;;;18.23;64.11;97394.44;4931353;29;20035;-80
2021/09/05 02:33:30;;;;;;;10.75;8.77;;;;;;;18.17;64.30;97392.94;4915532;29;20027;-80
2021/09/05 02:35:55;;;;;;;10.70;8.05;;;;;;;18.23;64.15;97404.19;4883789;29;20209;-80
2021/09/05 02:38:21;;;;;;;10.02;8.70;;;;;;;18.24;63.79;97397.84;4915313;29;20039;-80
2021/09/05 02:40:46;;;;;;;10.40;8.95;;;;;;;18.31;63.54;97408.78;4884048;29;20039;-80
2021/09/05 02:43:12;;;;;;;10.60;8.70;;;;;;;18.27;63.62;97405.19;4915132;29;20032;-80
2021/09/05 02:45:37;;;;;;;11.60;9.40;;;;;;;18.23;64.01;97409.44;4900573;29;20062;-80
2021/09/05 02:48:04;;;;;;;10.63;9.07;;;;;;;18.13;64.25;97395.38;4887623;29;20032;-80
2021/09/05 02:50:29;;;;;;;10.65;8.65;;;;;;;18.12;64.46;97403.56;4903044;29;20032;-80
2021/09/05 02:52:55;;;;;;;10.70;8.48;;;;;;;18.07;64.45;97407.06;4904248;29;20083;-80
2021/09/05 02:55:20;;;;;;;11.68;9.07;;;;;;;18.03;64.37;97406.06;4919179;29;20031;-80
2021/09/05 02:57:45;;;;;;;13.32;9.43;;;;;;;17.96;64.57;97397.75;4903168;29;20218;-80
2021/09/05 03:00:11;;;;;;;9.52;8.52;;;;;;;17.88;65.08;97399.16;4918749;29;20071;-80
2021/09/05 03:02:39;;;;;;;12.07;9.32;;;;;;;17.80;64.92;97394.50;4918327;29;20060;-80
2021/09/05 03:05:05;;;;;;;9.73;8.38;;;;;;;17.77;64.78;97395.09;4921598;29;20035;-80
2021/09/05 03:07:31;;;;;;;12.85;9.27;;;;;;;17.70;64.73;97398.09;4921929;29;20521;-81
2021/09/05 03:09:56;;;;;;;14.30;9.32;;;;;;;17.66;64.92;97397.06;4921868;29;20042;-81
2021/09/05 03:12:23;;;;;;;9.77;8.57;;;;;;;17.68;64.76;97405.47;4905720;29;20082;-80
2021/09/05 03:14:49;;;;;;;10.43;8.70;;;;;;;17.60;64.69;97403.50;4937463;29;20038;-80
2021/09/05 03:17:15;;;;;;;14.32;9.73;;;;;;;17.60;64.31;97401.63;4937294;29;20039;-80
2021/09/05 03:19:40;;;;;;;12.10;8.93;;;;;;;17.63;64.37;97400.28;4921558;29;20046;-80
2021/09/05 03:22:05;;;;;;;12.30;8.77;;;;;;;17.58;64.74;97400.34;4937740;29;20037;-80
2021/09/05 03:24:31;;;;;;;10.85;8.80;;;;;;;17.57;64.92;97402.19;4921731;29;20035;-80
2021/09/05 03:26:56;;;;;;;11.45;9.05;;;;;;;17.55;65.12;97400.94;4937322;29;20043;-80
2021/09/05 03:29:22;;;;;;;9.57;8.57;;;;;;;17.54;64.76;97394.09;4937332;29;20114;-80
2021/09/05 03:31:47;;;;;;;11.52;9.20;;;;;;;17.56;64.86;97402.47;4925458;29;20031;-80
2021/09/05 03:34:12;;;;;;;12.57;9.27;;;;;;;17.53;65.02;97395.94;4918141;29;20374;-80
2021/09/05 03:36:38;;;;;;;11.85;8.70;;;;;;;17.55;64.95;97400.94;4902419;29;20039;-80
2021/09/05 03:39:03;;;;;;;11.93;9.15;;;;;;;17.44;65.57;97400.25;4886856;29;20039;-80
2021/09/05 03:41:28;;;;;;;11.35;8.55;;;;;;;17.48;65.08;97400.47;4917935;29;20035;-80
2021/09/05 03:43:54;;;;;;;11.68;9.23;;;;;;;17.53;64.96;97403.03;4918223;29;20507;-80
2021/09/05 03:46:19;;;;;;;13.25;10.02;;;;;;;17.50;65.12;97406.25;4917961;29;20557;-80
2021/09/05 03:48:44;;;;;;;11.35;9.50;;;;;;;17.51;65.30;97408.63;4886565;29;20031;-80
2021/09/05 03:51:10;;;;;;;12.50;9.45;;;;;;;17.53;65.14;97403.03;4934332;29;20046;-80
2021/09/05 03:53:35;;;;;;;12.75;9.63;;;;;;;17.50;65.32;97408.91;4934957;29;20035;-80
2021/09/05 03:56:00;;;;;;;14.52;10.80;;;;;;;17.44;65.52;97405.53;4886600;29;20365;-80
2021/09/05 03:58:26;;;;;;;12.07;9.52;;;;;;;17.40;65.74;97410.56;4900838;29;20032;-80
2021/09/05 04:00:51;;;;;;;10.73;8.75;;;;;;;17.45;65.60;97411.59;4901697;29;20078;-80
2021/09/05 04:03:17;;;;;;;13.00;9.13;;;;;;;17.42;65.24;97405.81;4886072;29;20102;-80
2021/09/05 04:05:42;;;;;;;13.82;10.18;;;;;;;17.36;65.54;97412.22;4902015;29;20541;-80
2021/09/05 04:10:33;;;;;;;12.23;10.15;;;;;;;17.32;65.91;97420.94;4917375;29;20092;-80
2021/09/05 04:12:59;;;;;;;12.15;10.20;;;;;;;17.31;66.34;97411.50;4901946;29;20542;-80
2021/09/05 04:15:24;;;;;;;13.52;9.98;;;;;;;17.35;66.12;97413.28;4886616;29;20039;-80
2021/09/05 04:17:50;;;;;;;12.65;10.43;;;;;;;17.37;66.28;97416.41;4934606;29;20049;-80
2021/09/05 04:20:19;;;;;;;13.35;9.85;;;;;;;17.22;66.22;97414.75;4901278;29;20496;-80
2021/09/05 04:22:44;;;;;;;14.10;10.45;;;;;;;17.40;65.89;97422.97;4917625;29;20032;-80
2021/09/05 04:25:10;;;;;;;13.82;10.07;;;;;;;17.40;65.89;97425.59;4917204;29;20121;-80
2021/09/05 04:27:36;;;;;;;13.02;9.82;;;;;;;17.40;65.85;97421.09;4916828;29;20028;-80
2021/09/05 04:30:02;;;;;;;13.35;10.18;;;;;;;17.39;65.88;97430.09;4916573;29;20091;-80
2021/09/05 04:32:27;;;;;;;12.38;9.75;;;;;;;17.45;65.48;97422.13;4919864;29;20031;-80
2021/09/05 04:34:53;;;;;;;13.25;9.73;;;;;;;17.51;65.38;97428.88;4885746;29;20027;-80
2021/09/05 04:37:19;;;;;;;11.88;9.77;;;;;;;17.56;64.86;97434.06;4901246;29;20036;-80
2021/09/05 04:39:49;;;;;;;14.25;10.20;;;;;;;17.33;65.07;97430.41;4897677;29;20060;-80
2021/09/05 04:42:15;;;;;;;14.63;10.27;;;;;;;17.49;65.42;97436.28;4922157;29;20479;-80
2021/09/05 04:44:40;;;;;;;11.80;9.90;;;;;;;17.44;65.63;97426.59;4920093;29;20082;-80
2021/09/05 04:47:06;;;;;;;13.82;9.90;;;;;;;17.43;65.64;97432.94;4953128;29;20382;-80
2021/09/05 04:49:32;;;;;;;12.23;9.52;;;;;;;17.49;65.45;97436.28;4903854;29;20371;-80
2021/09/05 04:51:57;;;;;;;13.45;9.77;;;;;;;17.49;65.39;97441.53;4920273;29;20479;-80
2021/09/05 04:54:23;;;;;;;14.45;9.27;;;;;;;17.46;65.64;97447.38;4904435;29;20030;-80
2021/09/05 04:56:48;;;;;;;12.88;10.13;;;;;;;17.44;65.46;97446.88;4920126;29;20031;-80
2021/09/05 04:59:13;;;;;;;14.80;9.93;;;;;;;17.40;65.73;97444.00;4919063;29;20027;-80
2021/09/05 05:01:39;;;;;;;13.98;9.52;;;;;;;17.41;65.71;97442.97;4918950;29;20038;-80
2021/09/05 05:04:10;;;;;;;14.52;11.32;;;;;;;17.42;65.65;97458.44;4932863;28;20046;-80
2021/09/05 05:06:38;;;;;;;16.63;10.63;;;;;;;17.35;65.77;97454.59;4954124;28;20031;-80
2021/09/05 05:09:03;;;;;;;14.30;10.63;;;;;;;17.46;65.55;97456.06;4953209;28;20157;-80
2021/09/05 05:11:29;;;;;;;13.98;11.23;;;;;;;17.46;65.82;97455.25;4937325;28;20529;-80
2021/09/05 05:13:54;;;;;;;14.68;11.20;;;;;;;17.47;65.94;97457.63;4922440;28;20027;-80
2021/09/05 05:16:22;;;;;;;13.80;10.52;;;;;;;17.52;65.69;97459.41;4937603;28;20039;-80
2021/09/05 05:18:48;;;;;;;14.60;10.43;;;;;;;17.58;65.65;97461.69;4953552;28;20466;-80
2021/09/05 05:21:13;;;;;;;13.20;9.48;;;;;;;17.55;65.52;97458.84;4921345;28;20029;-80
2021/09/05 05:23:38;;;;;;;13.60;10.07;;;;;;;17.59;65.88;97470.38;4921447;28;20130;-80
2021/09/05 05:26:04;;;;;;;14.13;10.18;;;;;;;17.58;65.50;97471.44;4937540;28;20470;-80
2021/09/05 05:28:29;;;;;;;13.40;10.43;;;;;;;17.56;65.75;97470.94;4921855;28;20118;-80
2021/09/05 05:30:54;;;;;;;15.18;11.25;;;;;;;17.50;66.19;97459.69;4925614;29;20028;-80
2021/09/05 05:33:20;;;;;;;13.38;10.18;;;;;;;17.54;66.28;97467.81;4934603;29;20090;-80
2021/09/05 05:35:46;;;;;;;14.13;10.65;;;;;;;17.47;66.50;97462.09;4935627;29;20035;-80
2021/09/05 05:38:11;;;;;;;14.88;10.93;;;;;;;17.39;66.42;97464.31;4919580;29;20364;-80
2021/09/05 05:40:37;;;;;;;15.95;10.68;;;;;;;17.46;66.09;97469.22;4902616;29;20027;-80
2021/09/05 05:43:03;;;;;;;13.73;9.93;;;;;;;17.56;65.68;97470.94;4918859;29;20036;-80
2021/09/05 05:45:29;;;;;;;12.85;9.75;;;;;;;17.64;65.49;97478.22;4918780;29;20094;-80
2021/09/05 05:47:55;;;;;;;13.32;9.95;;;;;;;17.71;65.08;97464.69;4919205;29;20434;-80
2021/09/05 05:50:20;;;;;;;12.23;10.05;;;;;;;17.77;64.69;97477.53;4902734;29;20078;-80
2021/09/05 05:52:46;;;;;;;11.68;9.07;;;;;;;17.75;64.71;97471.75;4918991;29;20035;-80
2021/09/05 05:55:11;;;;;;;14.30;10.38;;;;;;;17.79;64.88;97480.66;4919013;29;20035;-80
2021/09/05 05:57:37;;;;;;;13.05;9.95;;;;;;;17.83;64.98;97480.09;4918902;29;20074;-80
2021/09/05 06:00:05;;;;;;;12.23;9.40;;;;;;;17.80;65.09;97489.31;4902625;29;20438;-80
2021/09/05 06:02:31;;;;;;;15.48;11.43;;;;;;;17.95;65.49;97483.13;4934179;29;20402;-80
2021/09/05 06:04:56;;;;;;;15.95;10.13;;;;;;;18.00;65.30;97480.41;4952209;29;20042;-80
2021/09/05 06:07:21;;;;;;;15.10;10.18;;;;;;;18.04;65.41;97489.31;4902697;29;20601;-80
2021/09/05 06:09:47;;;;;;;13.15;9.68;;;;;;;18.07;65.42;97491.38;4934241;29;20054;-80
2021/09/05 06:12:12;;;;;;;15.68;10.82;;;;;;;18.17;65.49;97489.69;4919333;29;20023;-80
2021/09/05 06:14:38;;;;;;;14.05;10.10;;;;;;;18.17;65.30;97481.78;4918880;29;20034;-80
2021/09/05 06:17:04;;;;;;;15.30;10.45;;;;;;;18.18;65.55;97493.88;4934607;29;20035;-80
2021/09/05 06:19:29;;;;;;;13.60;10.55;;;;;;;18.18;65.54;97496.50;4934049;29;20042;-80
2021/09/05 06:21:55;;;;;;;13.65;10.68;;;;;;;18.19;65.37;97487.53;4918462;29;20114;-80
2021/09/05 06:24:20;;;;;;;14.70;10.25;;;;;;;18.23;65.72;97491.97;4934532;29;20679;-80
2021/09/05 06:26:45;;;;;;;13.20;10.20;;;;;;;18.20;65.34;97491.72;4945985;28;20115;-79
2021/09/05 06:29:11;;;;;;;13.30;10.10;;;;;;;18.21;65.39;97501.22;4937300;28;20463;-80
2021/09/05 06:31:36;;;;;;;14.52;10.27;;;;;;;18.32;64.92;97505.28;4934073;29;20044;-80
2021/09/05 06:34:02;;;;;;;12.25;9.77;;;;;;;18.30;64.81;97504.75;4899684;29;20138;-80
2021/09/05 06:36:30;;;;;;;12.05;9.98;;;;;;;18.34;64.81;97506.53;4932688;29;20106;-80
2021/09/05 06:38:55;;;;;;;14.27;9.88;;;;;;;18.36;64.94;97506.25;4932759;29;20062;-80
2021/09/05 06:41:20;;;;;;;12.15;10.30;;;;;;;18.38;64.65;97509.38;4898965;29;20067;-80
2021/09/05 06:43:46;;;;;;;13.63;9.27;;;;;;;18.38;64.93;97513.88;4913530;29;20032;-80
2021/09/05 06:46:13;;;;;;;12.85;9.60;;;;;;;18.47;64.61;97512.16;4883928;29;20059;-80
2021/09/05 06:48:38;;;;;;;12.75;9.43;;;;;;;18.59;64.72;97519.63;4914876;29;20064;-80
2021/09/05 06:51:04;;;;;;;13.43;10.20;;;;;;;18.62;64.84;97516.41;4913924;29;20482;-80
2021/09/05 06:53:29;;;;;;;13.70;9.80;;;;;;;18.72;64.45;97527.56;4899360;29;20028;-79
2021/09/05 06:55:55;;;;;;;11.82;9.40;;;;;;;18.87;64.55;97529.22;4899518;29;20443;-80
2021/09/05 06:58:20;;;;;;;14.25;9.52;;;;;;;18.99;63.63;97528.75;4930570;29;20028;-79
2021/09/05 07:00:45;;;;;;;11.93;9.60;;;;;;;19.00;64.39;97526.91;4931588;29;20070;-80
2021/09/05 07:03:11;;;;;;;13.48;10.05;;;;;;;19.08;64.19;97532.28;4914842;29;20039;-80
2021/09/05 07:05:36;;;;;;;13.20;9.50;;;;;;;19.22;63.69;97532.31;4892071;29;20031;-79
2021/09/05 07:08:02;;;;;;;15.05;10.10;;;;;;;19.14;63.60;97527.72;4918614;29;20576;-80
2021/09/05 07:10:27;;;;;;;15.35;9.65;;;;;;;19.08;64.00;97536.78;4918204;29;20035;-80
2021/09/05 07:12:53;;;;;;;14.70;10.40;;;;;;;19.06;63.98;97536.31;4934545;29;20020;-80
2021/09/05 07:15:18;;;;;;;12.45;9.85;;;;;;;18.96;64.22;97547.03;4918449;29;20031;-80
2021/09/05 07:17:43;;;;;;;15.13;10.43;;;;;;;18.99;64.00;97546.47;4902434;29;20031;-80
2021/09/05 07:20:09;;;;;;;13.45;10.88;;;;;;;19.13;63.93;97544.63;4917784;29;20070;-79
2021/09/05 07:22:35;;;;;;;14.13;10.45;;;;;;;19.10;63.95;97550.47;4902525;29;20034;-80
2021/09/05 07:25:02;;;;;;;13.23;10.30;;;;;;;19.15;63.65;97545.09;4902666;29;20027;-80
2021/09/05 07:27:29;;;;;;;14.48;11.38;;;;;;;19.08;63.80;97544.72;4934152;29;20060;-80
2021/09/05 07:29:54;;;;;;;12.77;10.35;;;;;;;19.16;63.50;97546.69;4933470;29;20110;-81
2021/09/05 07:32:20;;;;;;;14.50;10.45;;;;;;;19.11;63.59;97543.34;4904907;29;20337;-80
2021/09/05 07:34:46;;;;;;;16.40;9.80;;;;;;;19.20;63.68;97544.25;4902766;29;20031;-80
2021/09/05 07:37:12;;;;;;;14.77;10.02;;;;;;;19.24;63.37;97546.03;4887170;29;20502;-80
2021/09/05 07:39:37;;;;;;;16.02;11.48;;;;;;;19.27;63.22;97545.41;4918064;29;20036;-80
2021/09/05 07:42:03;;;;;;;13.27;9.70;;;;;;;19.43;63.03;97542.50;4902496;29;20051;-79
2021/09/05 07:44:29;;;;;;;14.13;10.43;;;;;;;19.56;62.70;97547.00;4886563;29;20065;-80
2021/09/05 07:46:54;;;;;;;13.15;9.88;;;;;;;19.68;62.48;97551.03;4917903;29;20035;-79
2021/09/05 07:49:20;;;;;;;13.35;10.00;;;;;;;19.90;61.65;97548.50;4935074;29;20375;-80
2021/09/05 07:51:45;;;;;;;12.60;9.68;;;;;;;20.12;61.56;97547.00;4901908;29;20031;-80
2021/09/05 07:54:11;;;;;;;13.30;9.18;;;;;;;20.51;60.56;97546.41;4902220;29;20043;-79
2021/09/05 07:56:36;;;;;;;12.68;9.32;;;;;;;20.71;59.99;97544.38;4935036;29;20032;-79
2021/09/05 07:59:02;;;;;;;12.27;8.68;;;;;;;20.90;59.27;97536.25;4901833;29;20653;-80
2021/09/05 08:01:27;;;;;;;14.25;9.57;;;;;;;21.18;58.80;97554.59;4918193;29;20341;-80
2021/09/05 08:03:53;;;;;;;13.13;9.00;;;;;;;21.42;58.06;97547.09;4917583;29;20294;-80
2021/09/05 08:06:19;;;;;;;11.10;8.38;;;;;;;21.77;57.63;97560.50;4918068;29;20598;-81
2021/09/05 08:08:47;;;;;;;13.18;9.18;;;;;;;21.75;56.89;97554.72;4902451;29;20390;-80
2021/09/05 08:11:12;;;;;;;9.63;7.63;;;;;;;21.93;56.71;97560.06;4917610;29;20028;-80
2021/09/05 08:13:37;;;;;;;10.70;8.30;;;;;;;21.83;56.24;97558.47;4901749;29;20102;-80
2021/09/05 08:16:03;;;;;;;9.88;8.05;;;;;;;22.17;56.58;97560.41;4934689;29;20038;-79
2021/09/05 08:18:35;;;;;;;9.82;7.22;;;;;;;22.08;55.77;97556.97;4901996;29;20495;-80
2021/09/05 08:21:02;;;;;;;9.55;8.38;;;;;;;22.42;55.15;97563.44;4885737;29;20134;-79
2021/09/05 08:23:27;;;;;;;8.80;7.40;;;;;;;22.76;54.70;97556.53;4917547;29;20534;-80
2021/09/05 08:25:53;;;;;;;10.77;8.00;;;;;;;23.08;53.42;97557.91;4927314;28;20031;-80
2021/09/05 08:28:21;;;;;;;8.95;7.50;;;;;;;23.30;52.97;97567.53;4940168;28;20402;-80
2021/09/05 08:30:48;;;;;;;8.20;7.18;;;;;;;23.48;53.06;97564.81;4933159;28;20043;-80
2021/09/05 08:33:16;;;;;;;10.13;7.65;;;;;;;23.51;52.07;97572.94;4917522;29;20054;-79
2021/09/05 08:35:41;;;;;;;8.15;7.07;;;;;;;23.83;52.22;97564.66;4884871;29;20269;-77
2021/09/05 08:38:08;;;;;;;8.60;7.13;;;;;;;24.04;51.43;97565.50;4901006;29;20032;-77
2021/09/05 08:40:40;;;;;;;8.50;7.07;;;;;;;24.26;50.84;97574.25;4901080;29;20154;-77
2021/09/05 08:43:07;;;;;;;8.27;6.60;;;;;;;24.51;49.77;97561.09;4900307;29;20391;-77
2021/09/05 08:45:35;;;;;;;9.27;6.95;;;;;;;24.59;48.84;97565.56;4919791;29;20023;-78
2021/09/05 08:48:04;;;;;;;8.38;7.45;;;;;;;24.63;48.61;97563.81;4919951;29;20038;-78
2021/09/05 08:50:32;;;;;;;9.50;7.20;;;;;;;24.97;48.62;97560.06;4903917;29;20093;-77
2021/09/05 08:52:58;;;;;;;7.60;6.40;;;;;;;25.28;47.99;97564.13;4919284;29;20199;-78
2021/09/05 08:55:24;;;;;;;8.65;6.90;;;;;;;25.15;47.62;97565.97;4919801;29;20027;-78
2021/09/05 08:57:49;;;;;;;7.75;6.28;;;;;;;25.56;48.12;97572.25;4904031;29;20035;-78
2021/09/05 09:00:15;;;;;;;7.93;7.13;;;;;;;25.55;47.68;97570.72;4918944;29;20039;-78
2021/09/05 09:02:44;;;;;;;7.47;6.75;;;;;;;25.81;46.88;97569.59;4934843;29;20043;-78
2021/09/05 09:05:13;;;;;;;7.55;6.50;;;;;;;25.90;47.08;97577.47;4934994;29;20110;-77
2021/09/05 09:07:46;;;;;;;11.10;6.93;;;;;;;26.10;46.71;97565.94;4931541;29;20114;-78
2021/09/05 09:10:13;;;;;;;7.07;6.22;;;;;;;25.97;45.57;97581.16;4900433;29;20431;-78
2021/09/05 09:12:40;;;;;;;8.52;7.10;;;;;;;25.57;46.73;97584.50;4884614;29;20028;-78
2021/09/05 09:15:29;;;;;;;7.32;6.60;;;;;;;25.76;46.90;97583.16;4900506;29;20067;-78
2021/09/05 09:17:55;;;;;;;7.70;6.57;;;;;;;26.25;45.40;97585.00;4900381;29;20023;-78
2021/09/05 09:20:31;;;;;;;7.25;6.53;;;;;;;26.25;45.69;97577.81;4900240;29;20117;-78
2021/09/05 09:23:17;;;;;;;7.03;6.35;;;;;;;26.21;44.69;97581.47;4900418;29;20039;-78
2021/09/05 09:26:16;;;;;;;6.90;6.20;;;;;;;26.51;45.49;97579.25;4900378;29;20098;-78
2021/09/05 09:28:46;;;;;;;7.18;6.47;;;;;;;26.68;43.98;97578.22;4912497;29;20589;-78
2021/09/05 09:31:11;;;;;;;6.85;6.20;;;;;;;27.13;43.34;97582.47;4906572;29;20419;-78
2021/09/05 09:33:37;;;;;;;7.20;6.50;;;;;;;27.00;43.11;97584.41;4918718;29;20348;-78
2021/09/05 09:36:09;;;;;;;7.65;6.82;;;;;;;27.32;43.29;97587.16;4934962;29;20058;-78
2021/09/05 09:38:35;;;;;;;6.75;6.05;;;;;;;27.07;43.62;97589.19;4919571;29;20039;-78
2021/09/05 09:41:06;;;;;;;6.88;6.28;;;;;;;27.12;43.20;97588.16;4934416;29;20062;-78
2021/09/05 09:43:32;;;;;;;6.75;6.05;;;;;;;27.27;42.93;97587.41;4934660;29;20031;-78
2021/09/05 09:46:12;;;;;;;6.63;6.03;;;;;;;27.19;43.25;97591.00;4919250;29;20038;-78
2021/09/05 09:48:45;;;;;;;6.53;5.93;;;;;;;27.73;42.98;97578.97;4935098;29;20078;-78
2021/09/05 09:51:11;;;;;;;7.47;6.13;;;;;;;28.04;42.15;97586.19;4902937;29;20046;-78
2021/09/05 09:53:43;;;;;;;7.32;5.60;;;;;;;28.20;39.37;97589.56;4918849;29;20027;-78
2021/09/05 09:56:16;;;;;;;5.65;5.15;;;;;;;28.60;39.81;97584.28;4933589;29;20070;-78
2021/09/05 09:58:44;;;;;;;6.43;5.70;;;;;;;28.77;39.92;97584.63;4934056;29;20031;-78
2021/09/05 10:01:12;;;;;;;5.75;4.82;;;;;;;28.58;38.29;97585.41;4934589;29;20229;-78
2021/09/05 10:03:38;;;;;;;8.50;7.70;;;;;;;28.50;39.62;97580.25;4934214;29;20446;-78
2021/09/05 10:06:04;;;;;;;6.32;5.72;;;;;;;29.03;38.53;97579.69;4934597;29;20094;-77
2021/09/05 10:08:32;;;;;;;7.57;6.90;;;;;;;29.27;38.44;97566.00;4918463;29;20093;-78
2021/09/05 10:10:58;;;;;;;7.15;5.88;;;;;;;29.29;37.49;97569.09;4918630;29;20027;-78
2021/09/05 10:13:30;;;;;;;5.95;5.35;;;;;;;28.99;38.26;97576.97;4918447;29;20035;-78
2021/09/05 10:15:56;;;;;;;5.97;5.47;;;;;;;29.44;37.92;97574.66;4919243;29;20027;-77
2021/09/05 10:18:21;;;;;;;5.57;4.82;;;;;;;29.45;37.21;97568.94;4918922;29;20038;-78
2021/09/05 10:20:48;;;;;;;5.20;4.80;;;;;;;29.30;36.50;97573.31;4934180;29;20031;-78
2021/09/05 10:23:13;;;;;;;5.60;4.70;;;;;;;29.60;37.05;97571.88;4934625;29;20046;-78
2021/09/05 10:25:39;;;;;;;4.82;4.43;;;;;;;29.74;35.27;97569.38;4921224;28;20031;-78
2021/09/05 10:28:05;;;;;;;4.93;4.53;;;;;;;29.95;36.15;97576.22;4937522;28;20061;-78
2021/09/05 10:30:31;;;;;;;5.28;4.05;;;;;;;29.89;33.01;97573.09;4950503;28;20114;-78
2021/09/05 10:32:59;;;;;;;4.65;4.25;;;;;;;30.31;33.50;97571.31;4883570;29;20476;-78
2021/09/05 10:35:27;;;;;;;6.35;4.30;;;;;;;30.56;35.08;97577.78;4883765;29;20046;-78
2021/09/05 10:38:08;;;;;;;4.57;4.25;;;;;;;31.01;33.03;97585.19;4898896;29;20087;-77
2021/09/05 10:40:57;;;;;;;5.18;4.57;;;;;;;30.75;34.13;97582.22;4914551;29;20535;-78
2021/09/05 10:43:44;;;;;;;4.43;4.03;;;;;;;31.06;33.39;97580.25;4894091;29;20131;-78
2021/09/05 10:46:09;;;;;;;4.50;4.10;;;;;;;31.53;33.90;97576.06;4933722;29;20055;-78
2021/09/05 10:48:37;;;;;;;4.50;4.10;;;;;;;31.22;30.53;97581.91;4883223;29;20452;-78
2021/09/05 10:51:05;;;;;;;4.43;4.03;;;;;;;31.23;32.53;97575.41;4898859;29;20398;-78
2021/09/05 10:53:35;;;;;;;4.07;3.78;;;;;;;31.23;33.11;97573.47;4914829;29;20031;-78
2021/09/05 10:56:32;;;;;;;4.55;4.15;;;;;;;31.28;30.01;97583.91;4883518;29;20035;-78
2021/09/05 10:59:08;;;;;;;5.72;3.85;;;;;;;31.48;32.13;97568.31;4905938;29;20051;-78
2021/09/05 11:01:57;;;;;;;4.53;4.20;;;;;;;31.20;31.67;97576.13;4899338;29;20064;-78
2021/09/05 11:04:24;;;;;;;4.45;4.15;;;;;;;31.76;30.59;97577.75;4886188;29;20510;-78
2021/09/05 11:06:53;;;;;;;5.70;4.45;;;;;;;31.62;31.63;97567.66;4905940;28;20031;-78
2021/09/05 11:09:22;;;;;;;4.45;4.05;;;;;;;31.40;30.79;97579.38;4956322;28;20031;-79
2021/09/05 11:11:57;;;;;;;4.65;4.25;;;;;;;31.15;31.80;97572.66;4940770;28;20547;-79
2021/09/05 11:14:35;;;;;;;4.72;4.32;;;;;;;30.84;31.56;97573.09;4956602;28;20371;-78
2021/09/05 11:17:26;;;;;;;5.15;4.65;;;;;;;31.27;31.38;97576.97;4973684;28;20058;-78
2021/09/05 11:20:04;;;;;;;4.35;3.95;;;;;;;31.88;30.98;97572.03;4956072;28;20062;-78
2021/09/05 11:22:44;;;;;;;4.75;4.35;;;;;;;31.43;29.65;97576.72;4956944;28;20039;-78
2021/09/05 11:25:24;;;;;;;5.07;4.30;;;;;;;32.12;29.98;97577.22;4940246;28;20375;-78
2021/09/05 11:27:54;;;;;;;4.28;3.97;;;;;;;32.58;30.23;97573.94;4940191;28;20029;-78